Terminal Aerodrome Forecast
Issued by NWS Mt. Holly, NJ

Home | Current Version | Previous Version | Text Only | Print | Product List | Glossary On
Versions: 1 2 3 4 5 6 7 8 9 10 11 12 13
000
FTUS41 KPHI 300534
TAFABE
TAF
KABE 300534Z 3006/3106 22004KT P6SM SCT250
     FM300800 20004KT P6SM SCT025
      TEMPO 3009/3013 4SM BR OVC025
     FM301500 23006KT P6SM BKN045
     FM301800 25008KT P6SM BKN050
      TEMPO 3019/3022 2SM -TSRA BR BKN025CB
     FM302200 26007KT P6SM SCT250=

USA.gov is the U.S. government's official web portal to all federal, state and local government web resources and services.